Time;durP1;ratioP1;P1;durP2;ratioP2;P2;SDS_P1;SDS_P2;PMS_P1;PMS_P2;Temp;Humidity;BMP_temperature;BMP_pressure;BME280_temperature;BME280_humidity;BME280_pressure;Samples;Min_cycle;Max_cycle;Signal;HPM_P1;HPM_P2
2021/12/08 00:01:51;;;;;;;2.28;1.77;;;4.30;99.90;;;;;;5075173;28;20360;-42
2021/12/08 00:04:16;;;;;;;8.68;1.95;;;4.20;99.90;;;;;;5074991;28;20021;-42
2021/12/08 00:06:42;;;;;;;4.55;1.90;;;4.20;99.90;;;;;;5074526;28;20029;-43
2021/12/08 00:14:36;;;;;;;2.75;2.00;;;4.10;99.90;;;;;;5095076;28;20035;-43
2021/12/08 00:17:03;;;;;;;3.65;2.22;;;4.10;99.90;;;;;;5092941;28;20024;-42
2021/12/08 00:19:29;;;;;;;5.78;2.08;;;4.10;99.90;;;;;;5083730;28;20036;-42
2021/12/08 00:21:55;;;;;;;6.43;2.92;;;4.20;99.90;;;;;;5074295;28;20497;-43
2021/12/08 00:24:20;;;;;;;9.23;1.77;;;4.10;99.90;;;;;;5074719;28;20052;-43
2021/12/08 00:26:46;;;;;;;6.40;2.97;;;4.20;99.90;;;;;;5074210;28;20029;-42
2021/12/08 00:29:11;;;;;;;9.93;2.15;;;4.20;99.90;;;;;;5092997;28;20105;-45
2021/12/08 00:31:38;;;;;;;6.47;2.60;;;4.20;99.90;;;;;;5094687;28;20166;-42
2021/12/08 00:34:03;;;;;;;6.93;1.92;;;4.20;99.90;;;;;;5094286;28;20026;-44
2021/12/08 00:36:40;;;;;;;10.95;2.22;;;4.10;99.90;;;;;;5094725;28;20430;-43
2021/12/08 00:39:05;;;;;;;3.22;1.45;;;4.20;99.90;;;;;;5094720;28;20467;-44
2021/12/08 00:41:31;;;;;;;5.88;2.05;;;4.20;99.90;;;;;;5094122;28;20027;-43
2021/12/08 00:43:57;;;;;;;8.82;2.25;;;4.20;99.90;;;;;;5094517;28;20046;-43
2021/12/08 00:46:22;;;;;;;3.72;2.13;;;4.20;99.90;;;;;;5094549;28;20078;-43
2021/12/08 00:48:49;;;;;;;2.10;1.85;;;4.20;99.90;;;;;;5075861;28;20016;-44
2021/12/08 00:51:17;;;;;;;3.08;1.70;;;4.20;99.90;;;;;;5075244;28;20036;-43
2021/12/08 00:53:43;;;;;;;4.55;2.00;;;4.30;99.90;;;;;;5074100;28;20021;-43
2021/12/08 00:56:08;;;;;;;6.13;2.30;;;4.30;99.90;;;;;;5073270;28;20059;-43
2021/12/08 00:58:34;;;;;;;3.08;1.77;;;4.30;99.90;;;;;;5073906;28;20056;-44
2021/12/08 01:00:59;;;;;;;5.28;2.20;;;4.30;99.90;;;;;;5073964;28;20024;-43
2021/12/08 01:03:25;;;;;;;6.18;1.40;;;4.30;99.90;;;;;;5073429;28;20461;-43
2021/12/08 01:05:55;;;;;;;4.07;2.00;;;4.40;99.90;;;;;;5073803;28;20036;-43
2021/12/08 01:08:23;;;;;;;4.50;1.92;;;4.40;99.90;;;;;;5089398;28;20031;-44
2021/12/08 01:10:51;;;;;;;7.85;1.52;;;4.40;99.90;;;;;;5094168;28;20528;-44
2021/12/08 01:13:17;;;;;;;8.18;2.40;;;4.40;99.90;;;;;;5093997;28;20068;-43
2021/12/08 01:15:48;;;;;;;4.40;1.70;;;4.40;99.90;;;;;;5093355;28;20084;-44
2021/12/08 01:18:15;;;;;;;2.35;1.95;;;4.40;99.90;;;;;;5094046;28;20028;-44
2021/12/08 01:20:42;;;;;;;2.40;1.50;;;4.40;99.90;;;;;;5093988;28;20016;-43
2021/12/08 01:23:08;;;;;;;5.75;2.63;;;4.50;99.90;;;;;;5093383;28;20479;-43
2021/12/08 01:25:33;;;;;;;3.33;1.92;;;4.40;99.90;;;;;;5093742;28;20059;-42
2021/12/08 01:28:00;;;;;;;5.78;1.73;;;4.40;99.90;;;;;;5078252;28;20395;-43
2021/12/08 01:30:25;;;;;;;6.70;1.98;;;4.40;99.90;;;;;;5073922;28;20024;-43
2021/12/08 01:32:53;;;;;;;3.15;1.58;;;4.40;99.90;;;;;;5073518;28;20019;-43
2021/12/08 01:35:19;;;;;;;3.35;2.33;;;4.50;99.90;;;;;;5072620;28;20021;-43
2021/12/08 01:37:45;;;;;;;6.60;2.10;;;4.50;99.90;;;;;;5072768;28;20456;-43
2021/12/08 01:40:13;;;;;;;4.00;2.10;;;4.50;99.90;;;;;;5073290;28;20024;-43
2021/12/08 01:42:44;;;;;;;6.20;1.95;;;4.40;99.90;;;;;;5073159;28;20036;-44
2021/12/08 01:47:56;;;;;;;9.68;2.10;;;4.50;99.90;;;;;;5089600;28;20042;-44
2021/12/08 01:50:22;;;;;;;2.50;1.42;;;4.40;99.90;;;;;;5093412;28;20453;-44
2021/12/08 01:52:48;;;;;;;5.05;2.33;;;4.40;99.90;;;;;;5092806;28;20024;-44
2021/12/08 01:55:14;;;;;;;3.03;1.92;;;4.50;99.90;;;;;;5093062;28;20087;-44
2021/12/08 01:57:39;;;;;;;3.13;2.38;;;4.50;99.90;;;;;;5092888;28;20032;-43
2021/12/08 02:00:23;;;;;;;4.65;2.45;;;4.50;99.90;;;;;;5093289;28;20028;-43
2021/12/08 02:02:49;;;;;;;6.18;1.52;;;4.50;99.90;;;;;;5093317;28;20028;-43
2021/12/08 02:05:17;;;;;;;6.93;1.92;;;4.50;99.90;;;;;;5092596;28;20042;-43
2021/12/08 02:07:43;;;;;;;1.98;1.60;;;4.50;99.90;;;;;;5092997;28;20015;-42
2021/12/08 02:10:10;;;;;;;4.63;1.90;;;4.50;99.90;;;;;;5093117;28;20024;-42
2021/12/08 02:12:39;;;;;;;6.53;1.92;;;4.50;99.90;;;;;;5092505;28;20026;-44
2021/12/08 02:15:06;;;;;;;4.75;1.80;;;4.50;99.90;;;;;;5093193;28;20066;-44
2021/12/08 02:17:32;;;;;;;2.22;1.55;;;4.50;99.90;;;;;;5079422;28;20536;-44
2021/12/08 02:19:58;;;;;;;5.20;2.33;;;4.50;99.90;;;;;;5072377;28;20020;-43
2021/12/08 02:22:23;;;;;;;4.22;2.10;;;4.50;99.90;;;;;;5072902;28;20025;-43
2021/12/08 02:24:49;;;;;;;6.45;1.65;;;4.50;99.90;;;;;;5072759;28;20056;-42
2021/12/08 02:27:14;;;;;;;4.35;1.92;;;4.50;99.90;;;;;;5072332;28;20044;-44
2021/12/08 02:29:49;;;;;;;3.83;1.40;;;4.50;99.90;;;;;;5072696;28;20028;-43
2021/12/08 02:46:35;;;;;;;10.20;2.80;;;4.50;99.90;;;;;;5072739;28;20395;-44
2021/12/08 02:46:45;;;;;;;2.35;1.67;;;4.50;99.90;;;;;;5075920;28;20098;-45
2021/12/08 02:49:11;;;;;;;4.55;2.25;;;4.50;99.90;;;;;;5076023;28;20047;-42
2021/12/08 02:51:38;;;;;;;1.80;1.42;;;4.50;99.90;;;;;;5076523;28;20055;-43
2021/12/08 02:54:05;;;;;;;4.35;1.90;;;4.50;99.90;;;;;;5075852;28;20020;-44
2021/12/08 02:56:31;;;;;;;3.72;1.90;;;4.50;99.90;;;;;;5076094;28;20102;-44
2021/12/08 02:58:58;;;;;;;4.68;1.92;;;4.50;99.90;;;;;;5076481;28;20439;-43
2021/12/08 03:01:24;;;;;;;2.75;1.52;;;4.60;99.90;;;;;;5075785;28;20474;-43
2021/12/08 03:03:50;;;;;;;3.25;1.83;;;4.50;99.90;;;;;;5076188;28;20020;-43
2021/12/08 03:06:16;;;;;;;3.63;2.28;;;4.60;99.90;;;;;;5076144;28;20486;-42
2021/12/08 03:08:42;;;;;;;2.22;1.50;;;4.60;99.90;;;;;;5075629;28;20092;-42
2021/12/08 03:11:08;;;;;;;4.70;2.00;;;4.60;99.90;;;;;;5076041;28;20115;-44
2021/12/08 03:13:41;;;;;;;5.68;1.85;;;4.60;99.90;;;;;;5076076;28;20024;-42
2021/12/08 03:16:08;;;;;;;4.35;1.85;;;4.60;99.90;;;;;;5079457;28;20016;-44
2021/12/08 03:18:36;;;;;;;8.95;3.08;;;4.60;99.90;;;;;;5075931;28;20104;-43
2021/12/08 03:21:05;;;;;;;6.00;2.15;;;4.60;99.90;;;;;;5076156;28;20025;-44
2021/12/08 03:23:38;;;;;;;4.18;2.13;;;4.60;99.90;;;;;;5075282;28;20023;-43
2021/12/08 03:26:06;;;;;;;3.47;2.17;;;4.60;99.90;;;;;;5076017;28;20060;-42
2021/12/08 03:28:37;;;;;;;3.08;1.92;;;4.70;99.90;;;;;;5075755;28;20100;-44
2021/12/08 03:31:12;;;;;;;3.38;2.00;;;4.70;99.90;;;;;;5075396;28;20058;-42
2021/12/08 03:33:37;;;;;;;2.97;2.10;;;4.70;99.90;;;;;;5075792;28;20451;-43
2021/12/08 03:36:03;;;;;;;2.95;2.08;;;4.70;99.90;;;;;;5075219;28;20073;-43
2021/12/08 03:38:29;;;;;;;5.32;2.00;;;4.70;99.90;;;;;;5075596;28;20411;-43
2021/12/08 03:40:58;;;;;;;6.75;2.58;;;4.80;99.90;;;;;;5075547;28;20468;-43
2021/12/08 03:43:24;;;;;;;3.70;2.42;;;4.80;99.90;;;;;;5074896;28;20558;-45
2021/12/08 03:45:53;;;;;;;7.60;2.75;;;4.80;99.90;;;;;;5076315;28;20028;-44
2021/12/08 03:48:31;;;;;;;4.13;2.90;;;4.80;99.90;;;;;;5075543;28;20099;-43
2021/12/08 03:50:57;;;;;;;5.00;2.92;;;4.80;99.90;;;;;;5074946;28;20440;-43
2021/12/08 03:53:23;;;;;;;4.97;2.75;;;4.90;99.90;;;;;;5075426;28;20345;-43
2021/12/08 03:55:51;;;;;;;6.95;2.95;;;4.90;99.90;;;;;;5074864;28;20406;-42
2021/12/08 03:58:18;;;;;;;;;;;4.90;99.90;;;;;;5074346;28;20048;-43
2021/12/08 04:00:46;;;;;;;5.57;2.70;;;4.90;99.90;;;;;;5075089;28;20346;-44
2021/12/08 04:03:13;;;;;;;4.75;2.70;;;5.00;99.90;;;;;;5075054;28;20510;-45
2021/12/08 04:05:59;;;;;;;3.83;2.45;;;5.00;99.90;;;;;;5074469;28;20033;-43
2021/12/08 04:08:31;;;;;;;4.00;2.65;;;5.00;99.90;;;;;;5075002;28;20036;-42
2021/12/08 04:11:00;;;;;;;6.70;2.90;;;5.00;99.90;;;;;;5075207;28;20032;-44
2021/12/08 04:13:30;;;;;;;4.07;2.60;;;5.00;99.90;;;;;;5074564;28;20422;-43
2021/12/08 04:15:57;;;;;;;5.28;2.75;;;5.00;99.90;;;;;;5092378;28;20468;-43
2021/12/08 04:18:23;;;;;;;3.78;2.55;;;5.00;99.90;;;;;;5094733;28;20099;-43
2021/12/08 04:20:53;;;;;;;3.88;2.67;;;5.00;99.90;;;;;;5094964;28;20103;-45
2021/12/08 04:23:22;;;;;;;5.55;2.70;;;5.10;99.90;;;;;;5095265;28;20028;-44
2021/12/08 04:25:52;;;;;;;6.65;3.60;;;5.10;99.90;;;;;;5094289;28;20039;-43
2021/12/08 04:28:24;;;;;;;4.82;3.35;;;5.10;99.90;;;;;;5094976;28;20020;-44
2021/12/08 04:31:17;;;;;;;7.43;3.13;;;5.20;99.90;;;;;;5094789;28;20024;-43
2021/12/08 04:33:43;;;;;;;6.30;2.95;;;5.20;99.90;;;;;;5093564;28;20533;-44
2021/12/08 04:36:12;;;;;;;7.60;3.40;;;5.20;99.90;;;;;;5094098;28;20024;-43
2021/12/08 04:38:41;;;;;;;9.18;3.90;;;5.20;99.90;;;;;;5093976;28;20099;-43
2021/12/08 04:41:18;;;;;;;5.45;2.67;;;5.20;99.90;;;;;;5093584;28;20085;-42
2021/12/08 04:44:09;;;;;;;5.20;3.60;;;5.20;99.90;;;;;;5091950;28;20034;-43
2021/12/08 04:47:13;;;;;;;5.53;3.45;;;5.30;99.90;;;;;;5073013;28;20032;-43
2021/12/08 04:52:52;;;;;;;5.90;3.97;;;5.30;99.90;;;;;;5074793;28;20494;-43
2021/12/08 05:04:04;;;;;;;4.75;3.13;;;5.30;99.90;;;;;;5073398;28;20036;-43
2021/12/08 05:07:02;;;;;;;4.93;3.50;;;5.40;99.90;;;;;;5073246;28;20052;-42
2021/12/08 05:09:35;;;;;;;4.97;3.47;;;5.40;99.90;;;;;;5072492;28;20100;-45
2021/12/08 05:12:11;;;;;;;6.30;3.58;;;5.50;99.90;;;;;;5073188;28;20024;-44
2021/12/08 05:14:45;;;;;;;6.10;3.30;;;5.50;99.90;;;;;;5081018;28;20020;-44
2021/12/08 05:17:15;;;;;;;7.57;3.95;;;5.40;99.90;;;;;;5093252;28;20039;-44
2021/12/08 05:19:43;;;;;;;10.10;4.05;;;5.40;99.90;;;;;;5093083;28;20056;-42
2021/12/08 05:22:18;;;;;;;4.13;2.70;;;5.40;99.90;;;;;;5092767;28;20481;-44
2021/12/08 05:24:47;;;;;;;5.10;3.33;;;5.40;99.90;;;;;;5093016;28;20495;-43
2021/12/08 05:27:44;;;;;;;6.03;3.20;;;5.30;99.90;;;;;;5093164;28;20020;-44
2021/12/08 05:30:33;;;;;;;10.95;3.90;;;5.30;99.90;;;;;;5092518;28;20490;-44
2021/12/08 05:32:59;;;;;;;8.32;3.13;;;5.30;99.90;;;;;;5093015;28;20052;-43
2021/12/08 05:35:26;;;;;;;6.70;3.88;;;5.40;99.90;;;;;;5092994;28;20028;-42
2021/12/08 05:37:52;;;;;;;6.97;3.45;;;5.40;99.90;;;;;;5074140;28;20509;-42
2021/12/08 05:40:27;;;;;;;6.95;3.78;;;5.40;99.90;;;;;;5092911;28;20024;-43
2021/12/08 05:42:52;;;;;;;7.15;3.38;;;5.30;99.90;;;;;;5092314;28;20060;-43
2021/12/08 05:45:20;;;;;;;10.18;3.50;;;5.30;99.90;;;;;;5091071;28;20506;-43
2021/12/08 05:47:49;;;;;;;4.68;2.72;;;5.30;99.90;;;;;;5092500;28;20051;-42
2021/12/08 05:50:20;;;;;;;4.53;3.08;;;5.30;99.90;;;;;;5092245;28;20018;-43
2021/12/08 05:52:45;;;;;;;9.23;3.50;;;5.30;99.90;;;;;;5092636;28;20060;-44
2021/12/08 05:55:11;;;;;;;6.93;3.30;;;5.30;99.90;;;;;;5092396;28;20423;-43
2021/12/08 05:57:40;;;;;;;8.18;3.20;;;5.20;99.90;;;;;;5092071;28;20482;-44
2021/12/08 06:00:22;;;;;;;5.97;3.08;;;5.30;99.90;;;;;;5092585;28;20505;-44
2021/12/08 06:02:47;;;;;;;4.25;2.78;;;5.20;99.90;;;;;;5092554;28;20031;-44
2021/12/08 06:05:14;;;;;;;6.00;3.33;;;5.20;99.90;;;;;;5092007;28;20028;-44
2021/12/08 06:07:42;;;;;;;7.75;3.40;;;5.10;99.90;;;;;;5092380;28;20081;-44
2021/12/08 06:10:17;;;;;;;5.93;2.95;;;5.10;99.90;;;;;;5092440;28;20024;-43
2021/12/08 06:12:43;;;;;;;8.02;3.15;;;5.10;99.90;;;;;;5091883;28;20032;-44
2021/12/08 06:15:10;;;;;;;6.53;3.38;;;5.10;99.90;;;;;;5090302;28;20025;-42
2021/12/08 06:17:35;;;;;;;5.10;2.83;;;5.10;99.90;;;;;;5092193;28;20024;-43
2021/12/08 06:20:02;;;;;;;7.40;3.15;;;5.00;99.90;;;;;;5091311;28;20020;-43
2021/12/08 06:22:30;;;;;;;8.48;2.95;;;5.00;99.90;;;;;;5092308;28;20050;-42
2021/12/08 06:24:56;;;;;;;4.25;2.65;;;5.00;99.90;;;;;;5091880;28;20040;-43
2021/12/08 06:27:21;;;;;;;4.57;2.50;;;5.00;99.90;;;;;;5092350;28;20073;-44
2021/12/08 06:29:48;;;;;;;5.20;2.65;;;4.90;99.90;;;;;;5092211;28;20028;-45
2021/12/08 06:32:15;;;;;;;9.52;3.35;;;4.90;99.90;;;;;;5091812;28;20103;-43
2021/12/08 06:34:47;;;;;;;6.93;3.20;;;4.90;99.90;;;;;;5092139;28;20065;-43
2021/12/08 06:37:19;;;;;;;7.80;2.13;;;4.90;99.90;;;;;;5090394;28;20067;-43
2021/12/08 06:40:00;;;;;;;5.47;3.05;;;4.90;99.90;;;;;;5087413;28;20019;-43
2021/12/08 06:42:30;;;;;;;3.45;2.42;;;4.90;99.90;;;;;;5092914;28;20039;-43
2021/12/08 06:44:56;;;;;;;9.52;2.47;;;4.90;99.90;;;;;;5110386;28;20438;-44
2021/12/08 06:47:26;;;;;;;5.38;2.70;;;4.90;99.90;;;;;;5084227;28;20035;-43
2021/12/08 06:49:55;;;;;;;5.18;2.75;;;5.00;99.90;;;;;;5072565;28;20020;-44
2021/12/08 06:52:26;;;;;;;;;;;5.00;99.90;;;;;;5073097;28;20056;-43
2021/12/08 06:55:03;;;;;;;7.20;2.38;;;5.00;99.90;;;;;;5071930;28;19905;-44
2021/12/08 06:57:35;;;;;;;7.55;2.60;;;5.00;99.90;;;;;;5072469;28;20497;-44
2021/12/08 07:00:17;;;;;;;4.68;2.92;;;5.00;99.90;;;;;;5072320;28;20031;-45
2021/12/08 07:05:25;;;;;;;5.15;2.53;;;5.00;99.90;;;;;;5072425;28;20044;-43
2021/12/08 07:07:54;;;;;;;4.38;2.15;;;5.10;99.90;;;;;;5071740;28;20033;-43
2021/12/08 07:10:27;;;;;;;5.65;2.33;;;5.00;99.90;;;;;;5072749;28;20025;-43
2021/12/08 07:12:59;;;;;;;5.15;2.42;;;5.00;99.90;;;;;;5080386;28;20120;-43
2021/12/08 07:15:45;;;;;;;4.60;2.78;;;5.10;99.90;;;;;;5090207;28;20027;-43
2021/12/08 07:18:37;;;;;;;5.18;2.65;;;5.00;99.90;;;;;;5090034;28;20478;-43
2021/12/08 07:21:04;;;;;;;3.92;2.00;;;5.00;99.90;;;;;;5089307;28;20085;-44
2021/12/08 07:23:37;;;;;;;4.25;2.40;;;5.10;99.90;;;;;;5090012;28;20024;-43
2021/12/08 07:26:15;;;;;;;4.03;2.20;;;5.10;99.90;;;;;;5090291;28;20043;-43
2021/12/08 07:28:42;;;;;;;3.00;2.20;;;5.10;99.90;;;;;;5088608;28;20872;-43
2021/12/08 07:31:15;;;;;;;3.40;1.80;;;5.10;99.90;;;;;;5089448;28;20016;-42
2021/12/08 07:33:42;;;;;;;3.05;1.63;;;5.10;99.90;;;;;;5093505;28;20028;-43
2021/12/08 07:36:14;;;;;;;4.03;1.92;;;5.10;99.90;;;;;;5093205;28;20115;-43
2021/12/08 07:38:39;;;;;;;7.05;1.83;;;5.00;99.90;;;;;;5094006;28;20024;-43
2021/12/08 07:41:19;;;;;;;7.38;2.00;;;5.10;99.90;;;;;;5093706;28;20020;-44
2021/12/08 07:43:48;;;;;;;4.72;1.85;;;5.10;99.90;;;;;;5092414;28;20020;-44
2021/12/08 07:46:23;;;;;;;4.22;1.90;;;5.10;99.90;;;;;;5091105;28;20035;-44
2021/12/08 07:49:02;;;;;;;2.63;1.58;;;5.10;99.90;;;;;;5093549;28;20028;-43
2021/12/08 07:51:33;;;;;;;5.05;1.70;;;5.10;99.90;;;;;;5092871;28;20538;-45
2021/12/08 07:54:01;;;;;;;2.85;1.60;;;5.20;99.90;;;;;;5093552;28;20027;-43
2021/12/08 07:56:28;;;;;;;4.78;1.65;;;5.20;99.90;;;;;;5089728;28;20567;-43
2021/12/08 07:59:00;;;;;;;4.72;1.40;;;5.20;99.90;;;;;;5092849;28;20024;-43
2021/12/08 08:01:30;;;;;;;8.02;1.65;;;5.20;99.90;;;;;;5088762;28;20024;-44
2021/12/08 08:03:56;;;;;;;5.85;1.90;;;5.20;99.90;;;;;;5092644;28;20020;-43
2021/12/08 08:06:29;;;;;;;3.90;1.65;;;5.30;99.90;;;;;;5080774;28;20506;-42
2021/12/08 08:08:55;;;;;;;3.95;1.83;;;5.30;99.90;;;;;;5074565;28;20036;-42
2021/12/08 08:11:26;;;;;;;2.00;1.35;;;5.30;99.90;;;;;;5081685;28;20034;-42
2021/12/08 08:13:52;;;;;;;4.65;1.65;;;5.30;99.90;;;;;;5094467;28;20459;-44
2021/12/08 08:16:22;;;;;;;2.95;1.00;;;5.40;99.90;;;;;;5094303;28;20024;-43
2021/12/08 08:18:56;;;;;;;2.25;1.25;;;5.40;99.90;;;;;;5093870;28;20097;-44
2021/12/08 08:21:26;;;;;;;4.07;1.55;;;5.50;99.90;;;;;;5082196;28;20032;-45
2021/12/08 08:23:52;;;;;;;2.55;0.90;;;5.50;99.90;;;;;;5073807;28;20025;-42
2021/12/08 08:26:18;;;;;;;3.10;1.13;;;5.60;99.90;;;;;;5073229;28;20037;-43
2021/12/08 08:28:49;;;;;;;2.80;1.30;;;5.70;99.90;;;;;;5079504;28;20020;-43
2021/12/08 08:31:29;;;;;;;4.10;1.45;;;5.70;99.90;;;;;;5092938;28;20024;-42
2021/12/08 08:33:55;;;;;;;5.68;1.02;;;5.70;99.90;;;;;;5075526;28;20066;-43
2021/12/08 08:36:24;;;;;;;4.95;1.30;;;5.70;99.90;;;;;;5077638;28;20047;-43
2021/12/08 08:39:02;;;;;;;2.42;0.88;;;5.70;99.90;;;;;;5088966;28;20032;-43
2021/12/08 08:41:38;;;;;;;6.47;1.65;;;5.70;99.90;;;;;;5075639;28;20803;-43
2021/12/08 08:44:08;;;;;;;5.80;1.92;;;5.70;99.90;;;;;;5093049;28;20478;-44
2021/12/08 08:46:38;;;;;;;9.88;1.75;;;5.80;99.90;;;;;;5076500;28;20210;-43
2021/12/08 08:49:11;;;;;;;4.22;1.52;;;5.80;99.90;;;;;;5091385;28;20106;-44
2021/12/08 08:51:46;;;;;;;2.42;1.17;;;5.80;99.90;;;;;;5073535;28;20101;-44
2021/12/08 08:54:20;;;;;;;3.42;1.20;;;6.00;99.90;;;;;;5082808;28;20024;-44
2021/12/08 08:56:55;;;;;;;2.53;1.15;;;6.00;99.90;;;;;;5091459;28;20084;-43
2021/12/08 08:59:25;;;;;;;3.17;2.03;;;6.00;99.90;;;;;;5090266;28;20080;-44
2021/12/08 09:01:54;;;;;;;7.47;1.55;;;6.10;99.90;;;;;;5092758;28;20153;-43
2021/12/08 09:04:30;;;;;;;2.05;1.00;;;6.10;99.90;;;;;;5093344;28;20062;-43
2021/12/08 09:07:02;;;;;;;8.40;1.98;;;6.10;99.90;;;;;;5072967;28;20068;-43
2021/12/08 09:09:31;;;;;;;2.75;1.10;;;6.20;99.90;;;;;;5073318;28;20119;-43
2021/12/08 09:12:09;;;;;;;2.95;1.52;;;6.20;99.90;;;;;;5076228;28;20089;-44
2021/12/08 09:15:10;;;;;;;3.78;1.35;;;6.30;99.90;;;;;;5072348;28;20059;-43
2021/12/08 09:17:45;;;;;;;2.15;1.05;;;6.30;99.90;;;;;;5058510;28;20045;-44
2021/12/08 09:20:13;;;;;;;9.48;1.92;;;6.30;99.90;;;;;;5073969;28;20029;-43
2021/12/08 09:22:55;;;;;;;;;;;6.40;99.90;;;;;;5083226;28;20031;-45
2021/12/08 09:25:45;;;;;;;7.78;1.75;;;6.40;99.90;;;;;;5072631;28;19923;-44
2021/12/08 09:28:22;;;;;;;5.82;1.65;;;6.40;99.90;;;;;;5071882;28;20491;-45
2021/12/08 09:31:04;;;;;;;5.38;1.33;;;6.40;99.90;;;;;;5086074;28;20052;-44
2021/12/08 09:33:38;;;;;;;3.05;1.02;;;6.40;99.90;;;;;;5085809;28;20071;-44
2021/12/08 09:36:11;;;;;;;3.72;1.55;;;6.40;99.90;;;;;;5071933;28;20475;-43
2021/12/08 09:38:41;;;;;;;2.35;0.85;;;6.30;99.90;;;;;;5073865;28;20364;-44
2021/12/08 09:41:14;;;;;;;4.72;1.58;;;6.30;99.90;;;;;;5087968;28;20414;-44
2021/12/08 09:43:45;;;;;;;1.23;0.90;;;6.30;99.90;;;;;;5088878;28;20086;-45
2021/12/08 09:46:18;;;;;;;1.92;1.27;;;6.30;99.90;;;;;;5089845;28;20089;-44
2021/12/08 09:48:46;;;;;;;25.13;2.05;;;6.20;99.90;;;;;;5092177;28;20131;-44
2021/12/08 09:51:19;;;;;;;4.22;1.40;;;6.20;99.90;;;;;;5087409;28;20031;-43
2021/12/08 09:53:46;;;;;;;4.60;1.60;;;6.30;99.90;;;;;;5072560;28;20037;-45
2021/12/08 09:56:12;;;;;;;1.63;1.25;;;6.40;99.90;;;;;;5085646;28;20036;-44
2021/12/08 09:58:39;;;;;;;4.28;1.48;;;6.40;99.90;;;;;;5088719;28;20078;-44
2021/12/08 10:01:06;;;;;;;4.35;1.27;;;6.40;99.90;;;;;;5090099;28;20024;-44
2021/12/08 10:03:33;;;;;;;4.63;1.60;;;6.40;99.90;;;;;;5091243;28;20020;-43
2021/12/08 10:06:00;;;;;;;7.80;1.33;;;6.40;99.90;;;;;;5087877;28;20059;-44
2021/12/08 10:08:28;;;;;;;5.68;1.45;;;6.40;99.90;;;;;;5088820;28;20058;-42
2021/12/08 10:10:54;;;;;;;8.73;1.87;;;6.40;99.90;;;;;;5090677;28;20077;-44
2021/12/08 10:13:20;;;;;;;3.53;1.42;;;6.40;99.90;;;;;;5090922;28;20031;-43
2021/12/08 10:15:45;;;;;;;11.57;2.00;;;6.40;99.90;;;;;;5091235;28;20016;-44
2021/12/08 10:18:12;;;;;;;2.60;1.30;;;6.50;99.90;;;;;;5090368;28;20017;-43
2021/12/08 10:20:43;;;;;;;4.70;1.48;;;6.50;99.90;;;;;;5091251;28;20362;-44
2021/12/08 10:23:30;;;;;;;1.52;1.08;;;6.50;99.90;;;;;;5087053;28;20561;-44
2021/12/08 10:26:05;;;;;;;7.05;1.67;;;6.50;99.90;;;;;;5089066;28;20036;-44
2021/12/08 10:28:32;;;;;;;5.43;1.45;;;6.50;99.90;;;;;;5089219;28;20039;-46
2021/12/08 10:31:13;;;;;;;5.63;1.77;;;6.60;99.90;;;;;;5090774;28;20016;-43
2021/12/08 10:38:58;;;;;;;4.75;1.77;;;6.90;99.90;;;;;;5084659;28;20082;-44
2021/12/08 10:41:23;;;;;;;5.13;2.05;;;7.00;99.90;;;;;;5088948;28;20047;-46
2021/12/08 10:44:00;;;;;;;15.45;2.33;;;7.10;99.90;;;;;;5091353;28;20016;-44
2021/12/08 10:46:34;;;;;;;8.90;1.73;;;7.10;99.90;;;;;;5086362;28;20453;-44
2021/12/08 10:49:20;;;;;;;5.60;1.40;;;7.00;99.90;;;;;;5088594;28;20112;-43
2021/12/08 10:54:34;;;;;;;3.42;1.52;;;7.10;99.90;;;;;;5091360;28;20039;-43
2021/12/08 10:57:03;;;;;;;5.88;1.40;;;7.20;99.90;;;;;;5089752;28;20040;-45
2021/12/08 10:59:58;;;;;;;4.82;1.88;;;7.20;99.90;;;;;;5088836;28;20036;-44
2021/12/08 11:02:42;;;;;;;3.95;1.42;;;7.10;99.90;;;;;;5088831;28;20662;-44
2021/12/08 11:05:37;;;;;;;2.60;1.88;;;7.10;99.90;;;;;;5088673;28;20020;-44
2021/12/08 11:08:26;;;;;;;9.93;2.33;;;7.10;99.90;;;;;;5083531;28;20067;-43
2021/12/08 11:11:20;;;;;;;3.55;1.40;;;7.10;99.90;;;;;;5091150;28;20088;-44
2021/12/08 11:13:48;;;;;;;1.92;1.48;;;7.20;99.90;;;;;;5092592;28;20471;-43
2021/12/08 11:16:21;;;;;;;4.03;1.75;;;7.30;99.90;;;;;;5093433;28;20479;-43
2021/12/08 11:18:50;;;;;;;3.42;1.52;;;7.30;99.90;;;;;;5093218;28;20020;-42
2021/12/08 11:21:27;;;;;;;4.25;1.52;;;7.40;99.90;;;;;;5093228;28;20030;-43
2021/12/08 11:23:55;;;;;;;5.13;1.60;;;7.60;99.90;;;;;;5094252;28;20028;-44
2021/12/08 11:26:21;;;;;;;;;;;7.70;99.90;;;;;;5094369;28;20036;-43
2021/12/08 11:29:00;;;;;;;4.68;1.92;;;7.70;99.90;;;;;;5093146;28;19904;-44
2021/12/08 11:31:50;;;;;;;7.03;1.60;;;7.70;99.90;;;;;;5102362;28;20024;-43
2021/12/08 11:34:20;;;;;;;2.17;1.50;;;7.60;99.90;;;;;;5093546;28;20429;-44
2021/12/08 11:36:51;;;;;;;6.70;2.28;;;7.60;99.90;;;;;;5114309;28;20024;-44
2021/12/08 11:39:20;;;;;;;5.25;2.17;;;7.50;99.90;;;;;;5113667;28;20363;-44
2021/12/08 11:41:50;;;;;;;12.20;2.22;;;7.60;99.90;;;;;;5103487;28;20046;-45
2021/12/08 11:44:22;;;;;;;9.48;1.50;;;7.50;99.90;;;;;;5093511;28;20028;-45
2021/12/08 11:46:54;;;;;;;3.03;1.55;;;7.50;99.90;;;;;;5093606;28;20039;-44
2021/12/08 11:49:21;;;;;;;7.70;1.70;;;7.50;99.90;;;;;;5092370;28;20064;-43
2021/12/08 11:51:46;;;;;;;4.72;1.80;;;7.50;99.90;;;;;;5093749;28;20039;-45
2021/12/08 11:54:50;;;;;;;2.88;1.60;;;7.50;99.90;;;;;;5093253;28;20032;-44
2021/12/08 11:57:21;;;;;;;7.38;1.45;;;7.50;99.90;;;;;;5085181;28;20055;-43
2021/12/08 12:00:02;;;;;;;10.13;2.80;;;7.40;99.90;;;;;;5090135;28;20020;-45
2021/12/08 12:02:44;;;;;;;3.30;1.60;;;7.40;99.90;;;;;;5089793;28;20114;-45
2021/12/08 12:05:17;;;;;;;10.40;1.73;;;7.40;99.90;;;;;;5089685;28;20035;-44
2021/12/08 12:07:44;;;;;;;8.05;2.47;;;7.40;99.90;;;;;;5089497;28;20517;-44
2021/12/08 12:10:12;;;;;;;7.25;2.22;;;7.40;99.90;;;;;;5090232;28;20028;-44
2021/12/08 12:12:40;;;;;;;3.58;1.27;;;7.40;99.90;;;;;;5090573;28;20020;-43
2021/12/08 12:15:07;;;;;;;8.00;1.85;;;7.30;99.90;;;;;;5091612;28;20474;-43
2021/12/08 12:17:33;;;;;;;8.55;1.55;;;7.30;99.90;;;;;;5089312;28;20191;-43
2021/12/08 12:20:13;;;;;;;5.80;1.50;;;7.30;99.90;;;;;;5090905;28;20474;-44
2021/12/08 12:23:00;;;;;;;3.78;1.70;;;7.30;99.90;;;;;;5090877;28;20028;-43
2021/12/08 12:25:53;;;;;;;2.33;1.60;;;7.20;99.90;;;;;;5091624;28;20036;-43
2021/12/08 12:28:45;;;;;;;6.60;1.52;;;7.20;99.90;;;;;;5090564;28;20535;-45
2021/12/08 12:31:30;;;;;;;5.75;1.77;;;7.20;99.90;;;;;;5092113;28;20055;-43
2021/12/08 12:33:56;;;;;;;3.78;1.40;;;7.10;99.90;;;;;;5089948;28;20395;-43
2021/12/08 12:36:27;;;;;;;4.15;1.55;;;7.10;99.90;;;;;;5091316;28;20470;-44
2021/12/08 12:39:10;;;;;;;8.25;1.80;;;7.10;99.90;;;;;;5090543;28;20311;-43
2021/12/08 12:41:35;;;;;;;3.17;1.40;;;7.10;99.90;;;;;;5091133;28;20035;-44
2021/12/08 12:44:18;;;;;;;3.40;1.60;;;7.10;99.90;;;;;;5091977;28;20027;-43
2021/12/08 12:47:06;;;;;;;5.22;1.30;;;7.10;99.90;;;;;;5092241;28;20043;-43
2021/12/08 12:49:33;;;;;;;4.00;1.20;;;7.10;99.90;;;;;;5092157;28;20035;-44
2021/12/08 12:52:07;;;;;;;8.38;1.63;;;7.10;99.90;;;;;;5091955;28;20510;-45
2021/12/08 12:54:33;;;;;;;6.55;1.67;;;7.10;99.90;;;;;;5096739;28;20028;-43
2021/12/08 12:56:59;;;;;;;6.00;1.67;;;7.10;99.90;;;;;;5092143;28;20044;-43
2021/12/08 12:59:49;;;;;;;5.45;1.80;;;7.10;99.90;;;;;;5091502;28;20027;-43
2021/12/08 13:02:29;;;;;;;2.38;1.52;;;7.10;99.90;;;;;;5092090;28;20148;-42
2021/12/08 13:04:57;;;;;;;2.83;1.80;;;7.10;99.90;;;;;;5088941;28;20083;-43
2021/12/08 13:07:28;;;;;;;3.10;1.50;;;7.10;99.90;;;;;;5090975;28;20104;-43
2021/12/08 13:10:07;;;;;;;4.82;1.70;;;7.10;99.90;;;;;;5082479;28;20020;-44
2021/12/08 13:12:35;;;;;;;5.40;1.42;;;7.10;99.90;;;;;;5092287;28;20027;-44
2021/12/08 13:15:19;;;;;;;4.85;2.13;;;7.10;99.90;;;;;;5089658;28;20024;-45
2021/12/08 13:18:08;;;;;;;2.50;1.60;;;7.20;99.90;;;;;;5091926;28;20386;-45
2021/12/08 13:20:56;;;;;;;3.65;1.30;;;7.20;99.90;;;;;;5083537;28;20051;-43
2021/12/08 13:23:25;;;;;;;3.70;1.40;;;7.20;99.90;;;;;;5090427;28;20371;-44
2021/12/08 13:26:01;;;;;;;12.85;2.22;;;7.20;99.90;;;;;;5090529;28;20367;-46
2021/12/08 13:28:37;;;;;;;2.88;1.50;;;7.30;99.90;;;;;;5089414;28;21714;-44
2021/12/08 13:31:37;;;;;;;7.20;1.70;;;7.30;99.90;;;;;;5091383;28;20032;-45
2021/12/08 13:34:08;;;;;;;7.97;2.42;;;7.30;99.90;;;;;;5089354;28;20020;-43
2021/12/08 13:36:54;;;;;;;4.00;1.20;;;7.20;99.90;;;;;;5083724;28;20035;-42
2021/12/08 13:39:26;;;;;;;7.35;2.03;;;7.20;99.90;;;;;;5089005;28;20040;-45
2021/12/08 13:42:02;;;;;;;2.33;1.23;;;7.20;99.90;;;;;;5090690;28;20058;-45
2021/12/08 13:44:35;;;;;;;7.38;1.95;;;7.20;99.90;;;;;;5091361;28;20023;-43
2021/12/08 13:47:21;;;;;;;8.18;1.80;;;7.20;99.90;;;;;;5091353;28;20039;-44
2021/12/08 13:49:50;;;;;;;6.63;1.42;;;7.20;99.90;;;;;;5083829;28;20391;-44
2021/12/08 13:52:19;;;;;;;3.58;1.55;;;7.10;99.90;;;;;;5091235;28;20020;-43
2021/12/08 13:54:48;;;;;;;2.75;1.52;;;7.10;99.90;;;;;;5085541;28;20020;-43
2021/12/08 13:57:40;;;;;;;9.73;1.60;;;7.10;99.90;;;;;;5090004;28;20059;-44
2021/12/08 14:00:23;;;;;;;2.70;1.13;;;7.10;99.60;;;;;;5090846;28;20032;-44
2021/12/08 14:02:54;;;;;;;4.05;1.45;;;7.20;99.90;;;;;;5089555;28;20113;-46
2021/12/08 14:05:30;;;;;;;5.47;1.70;;;7.40;99.90;;;;;;5087700;28;20040;-42